Time;durP1;ratioP1;P1;durP2;ratioP2;P2;SDS_P1;SDS_P2;PMS_P1;PMS_P2;Temp;Humidity;BMP_temperature;BMP_pressure;BME280_temperature;BME280_humidity;BME280_pressure;Samples;Min_cycle;Max_cycle;Signal;HPM_P1;HPM_P2
2020/12/03 00:01:05;;;;;;;49.92;22.40;;;;;;;2.50;82.98;99997.91;5104205;28;20028;-64
2020/12/03 00:03:36;;;;;;;50.63;23.50;;;;;;;2.76;81.63;99968.44;5104629;28;20028;-65
2020/12/03 00:06:07;;;;;;;54.95;20.33;;;;;;;2.67;82.02;99971.72;5104364;28;20031;-65
2020/12/03 00:08:37;;;;;;;37.33;16.45;;;;;;;2.91;80.75;99976.38;5104427;28;20043;-64
2020/12/03 00:11:03;;;;;;;33.22;15.77;;;;;;;2.92;80.56;99951.59;5104290;28;20032;-65
2020/12/03 00:13:31;;;;;;;40.78;16.80;;;;;;;2.92;80.24;99960.16;5104046;28;20111;-64
2020/12/03 00:15:59;;;;;;;36.47;18.00;;;;;;;2.84;80.61;99954.88;5104100;28;20053;-65
2020/12/03 00:18:26;;;;;;;38.05;18.25;;;;;;;2.82;80.59;99946.31;5104232;28;20020;-64
2020/12/03 00:20:52;;;;;;;49.63;18.63;;;;;;;2.89;80.49;99944.69;5104073;28;20042;-67
2020/12/03 00:23:18;;;;;;;36.22;14.93;;;;;;;2.94;79.88;99966.16;5104107;28;20023;-64
2020/12/03 00:25:44;;;;;;;35.80;16.77;;;;;;;2.97;79.59;99949.97;5104120;28;20035;-64
2020/12/03 00:28:10;;;;;;;40.33;18.35;;;;;;;2.81;80.44;99946.31;5103637;28;20023;-65
2020/12/03 00:30:35;;;;;;;31.23;16.08;;;;;;;2.76;80.41;99938.53;5104094;28;20020;-64
2020/12/03 00:33:00;;;;;;;33.75;13.10;;;;;;;2.93;79.45;99932.78;5104101;28;20111;-65
2020/12/03 00:35:27;;;;;;;37.65;16.25;;;;;;;2.88;79.56;99948.13;5103785;28;20064;-64
2020/12/03 00:37:53;;;;;;;36.17;16.15;;;;;;;2.77;79.96;99936.81;5103361;28;20024;-64
2020/12/03 00:40:20;;;;;;;29.70;14.15;;;;;;;2.72;80.32;99929.06;5103853;28;20032;-65
2020/12/03 00:42:46;;;;;;;50.38;20.00;;;;;;;2.58;80.76;99928.84;5103467;28;20020;-67
2020/12/03 00:45:14;;;;;;;41.25;20.45;;;;;;;2.97;78.62;99902.09;5104030;28;20020;-67
2020/12/03 00:47:40;;;;;;;34.00;15.40;;;;;;;2.95;79.12;99903.78;5103947;28;20019;-65
2020/12/03 00:50:07;;;;;;;40.45;22.35;;;;;;;2.63;79.97;99895.59;5103792;28;20081;-63
2020/12/03 00:52:33;;;;;;;32.35;16.08;;;;;;;2.74;79.34;99904.31;5103713;28;20020;-65
2020/12/03 00:54:58;;;;;;;42.55;19.52;;;;;;;2.77;79.02;99894.09;5103612;28;20049;-64
2020/12/03 00:57:23;;;;;;;32.42;15.05;;;;;;;2.88;78.49;99893.41;5103346;28;20024;-64
2020/12/03 00:59:49;;;;;;;46.67;20.00;;;;;;;2.83;78.55;99886.50;5103641;28;20032;-64
2020/12/03 01:02:15;;;;;;;41.15;19.60;;;;;;;3.03;77.72;99883.38;5103573;28;20103;-66
2020/12/03 01:04:41;;;;;;;42.83;15.85;;;;;;;2.70;79.02;99872.63;5102256;28;20028;-65
2020/12/03 01:07:07;;;;;;;28.52;15.85;;;;;;;2.81;78.55;99879.66;5103517;28;20185;-67
2020/12/03 01:09:36;;;;;;;23.55;10.60;;;;;;;2.87;78.37;99874.59;5103584;28;20024;-65
2020/12/03 01:12:03;;;;;;;46.42;15.00;;;;;;;2.65;79.44;99870.84;5103135;28;20039;-64
2020/12/03 01:14:29;;;;;;;39.88;16.38;;;;;;;2.85;78.38;99866.03;5103405;28;20512;-66
2020/12/03 01:16:54;;;;;;;38.83;16.08;;;;;;;2.82;78.44;99865.97;5103233;28;20043;-65
2020/12/03 01:19:19;;;;;;;39.03;17.90;;;;;;;2.90;78.17;99863.53;5103618;28;20039;-65
2020/12/03 01:21:45;;;;;;;45.13;20.98;;;;;;;2.76;78.20;99871.88;5101732;28;20146;-63
2020/12/03 01:24:10;;;;;;;32.15;14.95;;;;;;;2.94;77.73;99866.16;5103258;28;20030;-65
2020/12/03 01:26:35;;;;;;;40.60;15.90;;;;;;;3.00;77.33;99860.25;5102960;28;20096;-66
2020/12/03 01:29:01;;;;;;;30.70;13.75;;;;;;;3.00;77.62;99864.53;5103437;28;20020;-66
2020/12/03 01:31:31;;;;;;;41.10;15.80;;;;;;;2.73;78.60;99857.31;5103224;28;20111;-65
2020/12/03 01:33:57;;;;;;;36.20;17.85;;;;;;;2.94;77.80;99850.75;5103273;28;20024;-64
2020/12/03 01:36:22;;;;;;;37.72;18.05;;;;;;;2.87;78.00;99848.09;5103015;28;20039;-64
2020/12/03 01:38:48;;;;;;;30.65;12.65;;;;;;;3.00;77.42;99846.56;5103453;28;20016;-65
2020/12/03 01:41:13;;;;;;;38.13;16.85;;;;;;;3.02;77.29;99850.88;5103222;28;20057;-64
2020/12/03 01:43:42;;;;;;;50.97;22.85;;;;;;;2.79;77.99;99853.13;5102952;28;20031;-65
2020/12/03 01:46:08;;;;;;;31.05;15.73;;;;;;;3.02;77.58;99832.06;5103064;28;20030;-68
2020/12/03 01:48:49;;;;;;;65.75;28.50;;;;;;;2.91;77.29;99850.72;5103316;28;20115;-64
2020/12/03 01:51:25;;;;;;;35.75;13.57;;;;;;;3.04;77.06;99838.06;5106623;28;20074;-68
2020/12/03 01:54:00;;;;;;;39.38;18.38;;;;;;;3.02;77.08;99829.50;5107050;28;20102;-67
2020/12/03 01:56:26;;;;;;;42.50;17.52;;;;;;;3.09;76.91;99833.84;5106626;28;20016;-67
2020/12/03 01:58:51;;;;;;;40.75;16.55;;;;;;;2.99;76.80;99817.47;5106835;28;20023;-66
2020/12/03 02:01:17;;;;;;;45.03;21.10;;;;;;;3.03;76.75;99828.66;5106793;28;20036;-68
2020/12/03 02:03:48;;;;;;;37.17;16.00;;;;;;;3.16;76.50;99804.03;5106721;28;20028;-67
2020/12/03 02:06:20;;;;;;;58.13;26.65;;;;;;;2.80;77.58;99809.56;5106519;28;20027;-63
2020/12/03 02:08:45;;;;;;;;;;;;;;;3.13;76.65;99794.56;5107138;28;20020;-67
2020/12/03 02:11:11;;;;;;;35.42;16.08;;;;;;;3.15;76.56;99784.31;5106513;28;19911;-67
2020/12/03 02:13:36;;;;;;;35.53;15.50;;;;;;;3.05;76.45;99776.53;5106168;28;20042;-66
2020/12/03 02:16:02;;;;;;;52.75;22.55;;;;;;;2.91;76.83;99773.78;5106317;28;20099;-65
2020/12/03 02:18:28;;;;;;;42.05;14.68;;;;;;;3.07;76.74;99781.69;5106751;28;20020;-66
2020/12/03 02:20:53;;;;;;;48.95;17.98;;;;;;;3.14;76.18;99783.50;5106182;28;20023;-67
2020/12/03 02:23:18;;;;;;;31.55;14.85;;;;;;;3.05;76.62;99768.00;5105026;28;20034;-66
2020/12/03 02:25:44;;;;;;;46.28;20.13;;;;;;;3.02;76.50;99771.38;5106236;28;20164;-67
2020/12/03 02:28:09;;;;;;;36.95;18.15;;;;;;;2.88;77.22;99778.88;5106050;28;20028;-67
2020/12/03 02:30:35;;;;;;;45.92;18.95;;;;;;;2.90;77.39;99761.81;5106425;28;20024;-65
2020/12/03 02:33:01;;;;;;;47.50;22.42;;;;;;;3.01;76.78;99744.00;5106110;28;20040;-67
2020/12/03 02:35:26;;;;;;;32.85;15.93;;;;;;;3.08;76.72;99760.34;5105837;28;20404;-66
2020/12/03 02:37:51;;;;;;;37.90;17.73;;;;;;;2.95;76.99;99770.44;5106230;28;20032;-65
2020/12/03 02:40:17;;;;;;;44.13;18.27;;;;;;;2.90;77.53;99753.25;5106148;28;20047;-66
2020/12/03 02:42:42;;;;;;;37.85;18.65;;;;;;;3.12;76.63;99756.94;5105477;28;20036;-68
2020/12/03 02:45:08;;;;;;;41.08;20.00;;;;;;;2.87;77.55;99746.41;5104784;28;20448;-66
2020/12/03 02:47:33;;;;;;;42.20;19.98;;;;;;;2.94;77.25;99726.84;5105968;28;20056;-66
2020/12/03 02:49:59;;;;;;;53.67;21.10;;;;;;;3.07;76.64;99741.50;5106047;28;20087;-66
2020/12/03 02:52:25;;;;;;;43.97;19.10;;;;;;;2.85;77.70;99748.94;5105764;28;20047;-67
2020/12/03 02:54:51;;;;;;;46.00;19.52;;;;;;;3.01;76.74;99750.81;5105665;28;20111;-64
2020/12/03 02:57:18;;;;;;;35.60;18.35;;;;;;;3.04;76.63;99738.91;5105460;28;20020;-65
2020/12/03 02:59:43;;;;;;;51.05;21.33;;;;;;;3.07;76.42;99744.06;5105702;28;20016;-67
2020/12/03 03:02:09;;;;;;;32.35;15.93;;;;;;;3.06;76.62;99741.50;5104797;28;20027;-66
2020/12/03 03:04:34;;;;;;;55.30;23.65;;;;;;;2.93;76.87;99743.91;5105576;28;20020;-65
2020/12/03 03:06:59;;;;;;;32.55;16.05;;;;;;;3.02;76.91;99750.84;5105621;28;20070;-66
2020/12/03 03:09:25;;;;;;;42.50;18.67;;;;;;;2.86;77.33;99747.22;5105597;28;20121;-66
2020/12/03 03:11:51;;;;;;;51.08;18.92;;;;;;;2.74;77.98;99750.50;5105228;28;20515;-64
2020/12/03 03:14:16;;;;;;;43.13;18.90;;;;;;;3.14;76.14;99747.56;5105293;28;20024;-66
2020/12/03 03:16:42;;;;;;;51.05;21.83;;;;;;;2.76;77.38;99743.72;5105213;28;20024;-65
2020/12/03 03:19:08;;;;;;;52.03;22.45;;;;;;;3.03;76.61;99746.59;5105278;28;20153;-65
2020/12/03 03:21:33;;;;;;;50.30;21.98;;;;;;;2.89;77.14;99731.88;5105177;28;20379;-67
2020/12/03 03:23:59;;;;;;;53.10;21.67;;;;;;;2.95;76.92;99755.06;5105181;28;20028;-65
2020/12/03 03:26:24;;;;;;;74.85;32.50;;;;;;;2.88;77.08;99755.81;5105015;28;20075;-65
2020/12/03 03:28:50;;;;;;;34.25;15.93;;;;;;;3.03;77.07;99759.41;5104805;28;20028;-67
2020/12/03 03:31:17;;;;;;;67.00;25.67;;;;;;;2.78;77.72;99754.81;5104998;28;20055;-65
2020/12/03 03:33:42;;;;;;;60.58;22.27;;;;;;;3.12;76.06;99754.38;5105007;28;20046;-66
2020/12/03 03:36:08;;;;;;;64.80;25.63;;;;;;;2.99;76.33;99755.94;5104677;28;20036;-63
2020/12/03 03:38:34;;;;;;;48.10;18.27;;;;;;;2.90;77.22;99755.81;5105088;28;20035;-65
2020/12/03 03:40:59;;;;;;;70.10;28.70;;;;;;;2.97;76.46;99755.91;5104904;28;20032;-65
2020/12/03 03:43:24;;;;;;;59.45;22.92;;;;;;;2.80;77.32;99737.78;5104618;28;20021;-65
2020/12/03 03:45:50;;;;;;;72.65;29.45;;;;;;;2.82;76.94;99750.59;5104613;28;20399;-64
2020/12/03 03:48:15;;;;;;;60.75;26.17;;;;;;;2.97;76.45;99755.91;5104390;28;20028;-64
2020/12/03 03:50:40;;;;;;;50.95;23.70;;;;;;;2.94;76.50;99750.75;5104839;28;20054;-66
2020/12/03 03:53:06;;;;;;;45.67;20.65;;;;;;;3.05;76.02;99756.00;5104745;28;20023;-64
2020/12/03 03:55:31;;;;;;;37.53;17.50;;;;;;;3.08;76.21;99743.22;5104489;28;20551;-64
2020/12/03 03:57:57;;;;;;;51.40;22.90;;;;;;;3.09;75.53;99729.56;5104324;28;20035;-66
2020/12/03 04:00:22;;;;;;;50.45;20.15;;;;;;;3.29;74.56;99734.03;5104617;28;20258;-66
2020/12/03 04:02:48;;;;;;;52.55;21.83;;;;;;;3.01;75.74;99735.44;5104292;28;20094;-65
2020/12/03 04:05:15;;;;;;;47.33;20.23;;;;;;;3.03;75.84;99731.19;5104648;28;20046;-66
2020/12/03 04:07:41;;;;;;;46.13;20.15;;;;;;;2.89;75.96;99725.91;5104372;28;20032;-65
2020/12/03 04:10:07;;;;;;;55.80;22.40;;;;;;;3.23;74.45;99721.16;5104285;28;20027;-67
2020/12/03 04:12:33;;;;;;;49.85;23.00;;;;;;;3.12;74.38;99715.91;5103332;28;20020;-65
2020/12/03 04:15:00;;;;;;;52.90;23.08;;;;;;;3.18;74.15;99707.44;5103673;28;20024;-65
2020/12/03 04:17:29;;;;;;;50.65;21.35;;;;;;;3.10;74.74;99702.19;5103981;28;20036;-68
2020/12/03 04:19:56;;;;;;;51.13;24.67;;;;;;;3.08;74.49;99691.09;5104094;28;20085;-65
2020/12/03 04:22:23;;;;;;;58.05;24.95;;;;;;;3.06;74.85;99703.91;5103886;28;20028;-67
2020/12/03 04:24:48;;;;;;;51.92;23.92;;;;;;;3.38;73.31;99670.84;5104115;28;20400;-68
2020/12/03 04:27:14;;;;;;;63.80;28.17;;;;;;;3.26;73.40;99692.13;5103709;28;20020;-65
2020/12/03 04:29:40;;;;;;;58.58;25.55;;;;;;;3.17;73.58;99683.47;5104148;28;20020;-66
2020/12/03 04:32:07;;;;;;;63.15;27.30;;;;;;;3.21;73.36;99674.97;5103907;28;20020;-65
2020/12/03 04:34:32;;;;;;;51.40;23.45;;;;;;;3.43;72.38;99680.31;5102224;28;20032;-66
2020/12/03 04:36:58;;;;;;;43.15;20.05;;;;;;;3.17;73.47;99678.34;5103722;28;20038;-66
2020/12/03 04:39:23;;;;;;;55.72;22.45;;;;;;;3.18;73.74;99663.84;5102534;28;20117;-66
2020/12/03 04:41:48;;;;;;;68.13;28.05;;;;;;;3.16;73.34;99665.50;5103380;28;20474;-66
2020/12/03 04:44:27;;;;;;;51.35;20.95;;;;;;;3.20;73.39;99647.59;5103813;28;20440;-67
2020/12/03 04:47:28;;;;;;;60.15;26.17;;;;;;;3.16;73.36;99645.00;5103758;28;20046;-66
2020/12/03 04:50:11;;;;;;;46.08;22.75;;;;;;;3.39;72.17;99632.38;5103930;28;20024;-68
2020/12/03 04:52:57;;;;;;;42.47;20.83;;;;;;;3.42;72.11;99629.81;5103763;28;20024;-69
2020/12/03 04:55:41;;;;;;;59.85;26.65;;;;;;;3.16;73.01;99642.44;5103700;28;20028;-65
2020/12/03 04:58:34;;;;;;;56.13;28.17;;;;;;;3.25;72.83;99644.19;5103370;28;20016;-66
2020/12/03 05:01:15;;;;;;;44.42;21.63;;;;;;;3.10;73.56;99627.81;5103456;28;20095;-64
2020/12/03 05:04:02;;;;;;;58.83;23.00;;;;;;;3.31;72.83;99621.16;5103555;28;20100;-65
2020/12/03 05:06:45;;;;;;;49.28;19.38;;;;;;;3.27;72.77;99606.59;5103559;28;21045;-67
2020/12/03 05:09:20;;;;;;;65.57;26.02;;;;;;;3.19;72.97;99609.97;5103821;28;20024;-66
2020/12/03 05:11:50;;;;;;;61.80;23.45;;;;;;;3.18;73.32;99626.19;5103122;28;20032;-67
2020/12/03 05:14:32;;;;;;;56.15;26.33;;;;;;;3.19;73.31;99622.81;5103639;28;20042;-66
2020/12/03 05:17:15;;;;;;;;;;;;;;;3.39;72.72;99611.84;5103948;28;20032;-66
2020/12/03 05:19:42;;;;;;;;;;;;;;;3.41;72.54;99610.16;5103890;28;19981;-66
2020/12/03 05:22:18;;;;;;;46.40;18.65;;;;;;;3.15;73.51;99603.09;5103089;28;19914;-66
2020/12/03 05:24:43;;;;;;;62.15;26.23;;;;;;;3.13;73.83;99615.03;5103413;28;20028;-68
2020/12/03 05:27:20;;;;;;;48.42;21.45;;;;;;;3.23;73.20;99598.00;5106993;28;20026;-67
2020/12/03 05:29:46;;;;;;;66.38;28.35;;;;;;;3.17;73.47;99595.41;5107831;28;20024;-66
2020/12/03 05:32:12;;;;;;;52.13;24.02;;;;;;;3.25;73.42;99609.16;5107271;28;20056;-66
2020/12/03 05:34:37;;;;;;;53.92;22.73;;;;;;;3.34;72.88;99596.41;5107261;28;20047;-66
2020/12/03 05:37:09;;;;;;;61.20;26.63;;;;;;;3.11;73.95;99591.09;5107283;28;20031;-68
2020/12/03 05:39:49;;;;;;;55.70;24.70;;;;;;;3.21;73.35;99580.03;5107614;28;20035;-66
2020/12/03 05:42:22;;;;;;;64.30;25.63;;;;;;;3.31;72.73;99582.69;5106771;28;20031;-68
2020/12/03 05:44:53;;;;;;;54.08;26.35;;;;;;;3.29;72.98;99585.25;5107310;28;20016;-67
2020/12/03 05:47:21;;;;;;;42.72;20.42;;;;;;;3.28;73.25;99582.66;5107024;28;20020;-69
2020/12/03 05:49:48;;;;;;;64.55;27.55;;;;;;;3.15;73.65;99577.44;5107447;28;20049;-69
2020/12/03 05:52:18;;;;;;;61.97;24.23;;;;;;;3.12;73.85;99582.53;5106986;28;20223;-68
2020/12/03 05:55:06;;;;;;;46.45;20.25;;;;;;;3.24;73.43;99584.38;5106951;28;20420;-70
2020/12/03 05:57:36;;;;;;;53.65;23.70;;;;;;;3.20;73.49;99580.03;5106707;28;20035;-69
2020/12/03 06:00:26;;;;;;;64.00;25.38;;;;;;;3.34;73.00;99582.69;5107053;28;20028;-69
2020/12/03 06:03:24;;;;;;;66.03;27.95;;;;;;;3.25;73.43;99572.38;5106612;28;20031;-67
2020/12/03 06:06:10;;;;;;;59.42;24.50;;;;;;;3.25;72.90;99577.50;5106880;28;20168;-67
2020/12/03 06:09:21;;;;;;;45.58;21.02;;;;;;;3.37;72.72;99569.06;5106571;28;20035;-67
2020/12/03 06:12:02;;;;;;;38.08;18.30;;;;;;;3.24;72.64;99581.78;5100364;28;20043;-64
2020/12/03 06:14:36;;;;;;;54.58;22.92;;;;;;;3.18;73.35;99572.31;5106558;28;20035;-67
2020/12/03 06:17:10;;;;;;;85.72;35.35;;;;;;;3.12;73.17;99577.41;5106390;28;20031;-65
2020/12/03 06:19:38;;;;;;;57.10;23.58;;;;;;;3.19;73.03;99581.75;5106687;28;20020;-66
2020/12/03 06:22:13;;;;;;;66.03;26.83;;;;;;;3.06;73.47;99579.91;5106072;28;20028;-64
2020/12/03 06:25:17;;;;;;;58.88;25.42;;;;;;;3.19;73.22;99584.31;5106278;28;20038;-64
2020/12/03 06:28:02;;;;;;;65.07;29.83;;;;;;;3.18;72.98;99567.19;5105988;28;20028;-64
2020/12/03 06:30:31;;;;;;;57.83;23.40;;;;;;;3.04;73.66;99555.97;5106526;28;20032;-65
2020/12/03 06:33:05;;;;;;;60.00;29.40;;;;;;;3.29;72.48;99580.09;5105995;28;20024;-65
2020/12/03 06:35:55;;;;;;;56.10;24.63;;;;;;;3.19;72.98;99571.50;5105624;28;20080;-67
2020/12/03 06:38:50;;;;;;;62.53;26.45;;;;;;;3.09;73.13;99577.38;5105632;28;20058;-65
2020/12/03 06:41:30;;;;;;;40.47;17.83;;;;;;;3.10;73.65;99581.66;5100862;28;20088;-65
2020/12/03 06:44:11;;;;;;;50.33;22.95;;;;;;;3.11;73.27;99583.41;5105581;28;20035;-67
2020/12/03 06:46:54;;;;;;;58.60;24.52;;;;;;;3.14;72.75;99575.72;5106059;28;20019;-66
2020/12/03 06:50:14;;;;;;;65.13;24.48;;;;;;;3.09;73.31;99580.81;5105912;28;20083;-64
2020/12/03 06:52:54;;;;;;;49.47;21.05;;;;;;;3.14;72.95;99574.84;5096336;28;20087;-66
2020/12/03 06:55:53;;;;;;;65.47;26.65;;;;;;;3.09;72.93;99577.38;5105694;28;20024;-64
2020/12/03 06:58:34;;;;;;;48.15;20.50;;;;;;;3.26;72.50;99584.38;5105439;28;20114;-64
2020/12/03 07:01:18;;;;;;;66.82;26.08;;;;;;;3.30;71.92;99574.16;5105758;28;20028;-66
2020/12/03 07:03:46;;;;;;;67.93;24.30;;;;;;;3.18;72.42;99580.03;5105584;28;20024;-65
2020/12/03 07:06:54;;;;;;;44.38;19.23;;;;;;;3.17;72.45;99580.88;5104400;28;20054;-66
2020/12/03 07:10:13;;;;;;;51.33;23.02;;;;;;;3.12;72.61;99590.22;5105533;28;20024;-65
2020/12/03 07:12:53;;;;;;;71.53;30.52;;;;;;;3.10;72.28;99579.09;5081961;28;20028;-65
2020/12/03 07:15:35;;;;;;;44.83;19.55;;;;;;;3.07;72.63;99569.69;5082538;28;20092;-65
2020/12/03 07:18:19;;;;;;;49.35;20.55;;;;;;;3.31;71.48;99578.41;5065528;28;20033;-65
2020/12/03 07:20:44;;;;;;;50.33;19.88;;;;;;;3.00;72.66;99573.03;5082389;28;20039;-64
2020/12/03 07:23:17;;;;;;;49.53;21.75;;;;;;;3.31;71.08;99562.16;5065504;28;20088;-66
2020/12/03 07:25:44;;;;;;;75.20;27.85;;;;;;;3.04;71.67;99568.78;5082226;28;20028;-65
2020/12/03 07:28:35;;;;;;;67.32;29.30;;;;;;;2.92;72.10;99572.97;5082077;28;20523;-64
2020/12/03 07:31:02;;;;;;;62.38;25.13;;;;;;;3.19;70.88;99566.38;5082442;28;20067;-67
2020/12/03 07:33:42;;;;;;;58.00;26.05;;;;;;;3.33;70.07;99568.16;5081812;28;20503;-65
2020/12/03 07:36:30;;;;;;;75.93;32.28;;;;;;;2.96;71.23;99558.44;5081961;28;20048;-63
2020/12/03 07:39:05;;;;;;;59.22;22.70;;;;;;;3.07;70.86;99571.38;5082122;28;20101;-65
2020/12/03 07:41:39;;;;;;;50.28;21.73;;;;;;;3.13;70.63;99562.88;5081840;28;20573;-66
2020/12/03 07:44:31;;;;;;;66.32;27.77;;;;;;;2.87;71.49;99561.81;5081684;28;20078;-65
2020/12/03 07:47:18;;;;;;;50.35;21.58;;;;;;;3.16;70.48;99573.16;5098893;28;20093;-65
2020/12/03 07:49:49;;;;;;;61.28;22.40;;;;;;;3.23;69.50;99559.53;5104907;28;20020;-65
2020/12/03 07:52:20;;;;;;;44.40;21.25;;;;;;;3.25;69.08;99539.03;5104597;28;20016;-67
2020/12/03 07:54:46;;;;;;;49.38;22.77;;;;;;;3.23;69.09;99554.41;5104658;28;20028;-67
2020/12/03 07:57:34;;;;;;;71.35;27.48;;;;;;;3.08;69.79;99550.03;5104491;28;20422;-66
2020/12/03 08:00:38;;;;;;;46.33;20.35;;;;;;;3.12;69.65;99548.31;5101524;28;20043;-65
2020/12/03 08:03:04;;;;;;;48.05;22.95;;;;;;;2.97;69.81;99542.25;5104373;28;20035;-66
2020/12/03 08:05:47;;;;;;;57.08;27.92;;;;;;;3.02;70.20;99555.09;5104586;28;20024;-66
2020/12/03 08:08:22;;;;;;;53.72;23.35;;;;;;;2.96;70.37;99553.31;5104585;28;20020;-66
2020/12/03 08:10:48;;;;;;;66.35;23.88;;;;;;;3.17;69.39;99546.66;5104466;28;20030;-67
2020/12/03 08:13:20;;;;;;;48.83;20.63;;;;;;;3.12;69.38;99551.75;5103979;28;20028;-65
2020/12/03 08:16:05;;;;;;;48.95;23.88;;;;;;;2.91;70.34;99558.41;5104509;28;20032;-64
2020/12/03 08:18:39;;;;;;;67.32;25.33;;;;;;;3.25;69.28;99551.84;5104277;28;20305;-66
2020/12/03 08:21:04;;;;;;;62.00;27.02;;;;;;;3.03;69.88;99550.00;5104154;28;20024;-67
2020/12/03 08:23:30;;;;;;;62.70;24.38;;;;;;;3.17;69.66;99560.34;5104111;28;20080;-68
2020/12/03 08:25:56;;;;;;;63.85;23.50;;;;;;;3.10;69.93;99553.44;5104130;28;20012;-66
2020/12/03 08:28:25;;;;;;;60.65;28.65;;;;;;;2.84;71.01;99567.75;5103918;28;20030;-65
2020/12/03 08:30:51;;;;;;;55.90;24.08;;;;;;;2.83;71.44;99560.91;5104200;28;20031;-65
2020/12/03 08:33:29;;;;;;;66.35;28.77;;;;;;;2.71;71.99;99566.78;5103922;28;20020;-65
2020/12/03 08:36:01;;;;;;;59.08;23.50;;;;;;;2.79;72.12;99560.88;5104024;28;20251;-64
2020/12/03 08:38:32;;;;;;;;;;;;;;;2.98;71.57;99567.03;5104417;28;20065;-64
2020/12/03 08:41:02;;;;;;;73.80;29.00;;;;;;;2.90;71.74;99563.53;5103949;28;19914;-67
2020/12/03 08:43:28;;;;;;;74.88;28.42;;;;;;;2.92;71.94;99562.72;5103622;28;20061;-67
2020/12/03 08:46:08;;;;;;;46.25;22.08;;;;;;;2.80;72.50;99555.75;5104175;28;20038;-65
2020/12/03 08:48:37;;;;;;;55.45;25.45;;;;;;;3.00;71.38;99562.78;5103997;28;20024;-65
2020/12/03 08:51:07;;;;;;;67.78;23.83;;;;;;;2.82;71.41;99548.94;5103668;28;20518;-64
2020/12/03 08:53:34;;;;;;;57.53;23.67;;;;;;;2.85;71.64;99560.91;5103793;28;20046;-66
2020/12/03 08:56:18;;;;;;;53.92;22.00;;;;;;;3.01;70.41;99555.94;5103728;28;20035;-67
2020/12/03 08:58:56;;;;;;;64.57;22.75;;;;;;;2.72;71.19;99553.13;5103070;28;20039;-65
2020/12/03 09:01:23;;;;;;;57.88;24.10;;;;;;;2.91;69.30;99568.66;5103417;28;20028;-67
2020/12/03 09:03:51;;;;;;;65.90;27.35;;;;;;;2.70;69.70;99559.94;5103503;28;20115;-65
2020/12/03 09:06:17;;;;;;;63.17;26.90;;;;;;;2.57;70.47;99545.28;5103906;28;20109;-65
2020/12/03 09:08:42;;;;;;;47.53;22.00;;;;;;;2.60;70.31;99548.72;5103739;28;20476;-66
2020/12/03 09:11:09;;;;;;;28.45;14.00;;;;;;;2.53;69.30;99526.44;5103608;28;20016;-66
2020/12/03 09:13:35;;;;;;;69.18;28.42;;;;;;;2.54;69.25;99542.69;5103202;28;20020;-67
2020/12/03 09:16:01;;;;;;;65.10;25.60;;;;;;;2.80;67.35;99535.25;5103477;28;20020;-67
2020/12/03 09:18:27;;;;;;;51.83;25.65;;;;;;;2.75;66.21;99536.06;5102054;28;20106;-66
2020/12/03 09:20:52;;;;;;;52.38;23.10;;;;;;;2.47;66.76;99452.09;5103484;28;20520;-67
2020/12/03 09:23:31;;;;;;;42.47;16.95;;;;;;;2.50;67.05;99544.34;5103381;28;20024;-65
2020/12/03 09:25:57;;;;;;;47.38;19.65;;;;;;;2.45;67.13;99549.44;5103725;28;20016;-64
2020/12/03 09:28:22;;;;;;;46.95;19.05;;;;;;;2.26;67.83;99542.38;5103241;28;20099;-65
2020/12/03 09:30:48;;;;;;;48.22;20.92;;;;;;;2.54;66.38;99530.72;5103600;28;20039;-67
2020/12/03 09:33:17;;;;;;;40.13;19.58;;;;;;;2.33;67.15;99498.06;5103386;28;20245;-66
2020/12/03 09:35:45;;;;;;;45.85;20.90;;;;;;;2.34;67.08;99520.25;5103266;28;20040;-66
2020/12/03 09:38:11;;;;;;;43.72;19.25;;;;;;;2.45;66.47;99523.81;5103225;28;20024;-68
2020/12/03 09:40:38;;;;;;;61.28;21.85;;;;;;;2.18;67.53;99514.97;5103470;28;20145;-67
2020/12/03 09:43:04;;;;;;;52.88;21.85;;;;;;;2.37;66.80;99510.03;5102835;28;20035;-67
2020/12/03 09:45:38;;;;;;;45.92;20.25;;;;;;;2.27;67.11;99510.81;5103486;28;20038;-66
2020/12/03 09:48:09;;;;;;;42.55;20.88;;;;;;;2.35;66.60;99498.91;5103089;28;20050;-67
2020/12/03 09:50:35;;;;;;;54.80;20.55;;;;;;;2.36;66.41;99505.78;5102957;28;20141;-65
2020/12/03 09:53:01;;;;;;;48.83;21.50;;;;;;;2.17;67.34;99502.16;5102849;28;20051;-68
2020/12/03 09:55:26;;;;;;;47.08;23.13;;;;;;;2.35;66.91;99470.75;5102438;28;20055;-69
2020/12/03 09:57:56;;;;;;;41.72;21.45;;;;;;;2.10;67.68;99504.66;5098699;28;20028;-67
2020/12/03 10:00:28;;;;;;;38.65;19.88;;;;;;;2.33;66.85;99504.03;5097928;28;20328;-69
2020/12/03 10:02:54;;;;;;;50.63;21.58;;;;;;;2.19;67.34;99490.25;5102061;28;20082;-69
2020/12/03 10:05:57;;;;;;;65.57;27.60;;;;;;;1.93;68.03;99504.41;5103269;28;20424;-65
2020/12/03 10:08:31;;;;;;;50.20;23.27;;;;;;;2.26;66.93;99488.56;5103029;28;20089;-68
2020/12/03 10:11:14;;;;;;;47.28;18.70;;;;;;;2.25;66.95;99490.31;5104357;28;20020;-67
2020/12/03 10:14:01;;;;;;;53.85;25.58;;;;;;;2.38;66.10;99482.75;5106270;28;20028;-67
2020/12/03 10:16:30;;;;;;;39.65;19.60;;;;;;;1.97;67.87;99482.28;5106331;28;20460;-65
2020/12/03 10:19:02;;;;;;;67.13;25.42;;;;;;;2.02;67.93;99478.09;5105232;28;20051;-68
2020/12/03 10:21:28;;;;;;;;;;;;;;;2.33;66.98;99463.03;5106932;28;20020;-67
2020/12/03 10:24:11;;;;;;;48.40;22.05;;;;;;;2.41;66.18;99464.84;5106372;28;19908;-67
2020/12/03 10:26:47;;;;;;;40.33;15.85;;;;;;;2.15;67.16;99475.66;5106382;28;20039;-67
2020/12/03 10:29:28;;;;;;;48.97;20.05;;;;;;;2.07;67.44;99489.25;5106104;28;20115;-67
2020/12/03 10:31:54;;;;;;;45.15;21.33;;;;;;;2.32;66.41;99475.84;5106439;28;20103;-66
2020/12/03 10:34:19;;;;;;;65.25;30.42;;;;;;;2.12;67.08;99479.06;5106089;28;20123;-65
2020/12/03 10:36:49;;;;;;;56.92;25.63;;;;;;;1.90;68.21;99473.66;5106061;28;20038;-65
2020/12/03 10:39:16;;;;;;;54.83;24.55;;;;;;;2.33;66.32;99469.88;5106099;28;20028;-68
2020/12/03 10:41:45;;;;;;;51.60;18.95;;;;;;;2.36;65.52;99477.59;5106073;28;20036;-66
2020/12/03 10:44:18;;;;;;;43.17;19.27;;;;;;;2.44;65.44;99465.72;5105814;28;20426;-68
2020/12/03 10:46:48;;;;;;;54.42;21.67;;;;;;;2.05;66.75;99464.44;5105999;28;20489;-65
2020/12/03 10:49:16;;;;;;;57.55;23.02;;;;;;;2.03;67.17;99458.47;5106077;28;20032;-67
2020/12/03 10:51:43;;;;;;;41.08;18.98;;;;;;;1.97;67.94;99451.56;5105861;28;20536;-67
2020/12/03 10:54:09;;;;;;;42.30;18.58;;;;;;;2.27;66.56;99444.22;5105902;28;20395;-67
2020/12/03 10:56:39;;;;;;;53.30;23.35;;;;;;;2.12;66.73;99448.31;5105508;28;20397;-66
2020/12/03 10:59:30;;;;;;;52.88;22.60;;;;;;;2.30;65.97;99447.63;5105452;28;20020;-66
2020/12/03 11:01:57;;;;;;;41.25;18.52;;;;;;;2.26;66.13;99439.91;5105785;28;20054;-68
2020/12/03 11:04:24;;;;;;;50.55;19.08;;;;;;;2.18;66.59;99435.59;5105715;28;20058;-66
2020/12/03 11:06:50;;;;;;;47.53;20.92;;;;;;;2.28;66.01;99439.09;5105769;28;20016;-66
2020/12/03 11:09:18;;;;;;;49.83;21.45;;;;;;;2.33;65.52;99436.59;5105335;28;20030;-66
2020/12/03 11:11:44;;;;;;;55.88;25.15;;;;;;;2.17;66.21;99421.03;5105451;28;20448;-66
2020/12/03 11:14:11;;;;;;;37.75;16.10;;;;;;;2.07;67.07;99419.25;5105269;28;20519;-67
2020/12/03 11:16:38;;;;;;;39.08;15.73;;;;;;;2.05;67.18;99413.25;5105289;28;20031;-69
2020/12/03 11:19:10;;;;;;;28.13;13.30;;;;;;;2.22;66.66;99406.59;5105303;28;20038;-66
2020/12/03 11:21:40;;;;;;;50.30;21.55;;;;;;;2.33;65.85;99398.16;5103971;28;20114;-67
2020/12/03 11:24:11;;;;;;;43.85;15.88;;;;;;;2.30;66.11;99393.84;5104838;28;20031;-66
2020/12/03 11:26:40;;;;;;;47.47;19.63;;;;;;;2.10;66.87;99403.91;5105293;28;20012;-64
2020/12/03 11:29:14;;;;;;;63.55;27.63;;;;;;;2.03;67.09;99397.88;5104717;28;20024;-64
2020/12/03 11:31:41;;;;;;;40.28;16.27;;;;;;;2.46;65.71;99402.53;5105203;28;20054;-66
2020/12/03 11:34:07;;;;;;;37.13;14.98;;;;;;;2.21;66.41;99386.09;5103554;28;20450;-64
2020/12/03 11:36:39;;;;;;;41.85;17.08;;;;;;;2.33;66.27;99395.59;5104908;28;20052;-65
2020/12/03 11:39:09;;;;;;;48.60;22.17;;;;;;;2.41;65.68;99382.84;5103736;28;20088;-65
2020/12/03 11:50:18;;;;;;;55.25;19.30;;;;;;;2.11;66.89;99364.66;5081998;28;20092;-66
2020/12/03 11:52:43;;;;;;;44.70;21.30;;;;;;;2.31;66.17;99361.41;5081581;28;20040;-66
2020/12/03 11:55:21;;;;;;;42.88;18.83;;;;;;;2.26;66.29;99353.69;5081806;28;20070;-67